Time;durP1;ratioP1;P1;durP2;ratioP2;P2;SDS_P1;SDS_P2;PMS_P1;PMS_P2;Temp;Humidity;BMP_temperature;BMP_pressure;BME280_temperature;BME280_humidity;BME280_pressure;Samples;Min_cycle;Max_cycle;Signal;HPM_P1;HPM_P2
2022/11/17 00:01:58;;;;;;;3.58;2.83;;;19.50;48.30;;;;;;5113613;28;20097;-10
2022/11/17 00:04:29;;;;;;;4.63;2.95;;;19.50;48.20;;;;;;5114011;28;20058;-10
2022/11/17 00:06:58;;;;;;;2.88;2.45;;;19.50;48.20;;;;;;5113589;28;20051;-10
2022/11/17 00:09:25;;;;;;;5.20;2.90;;;19.50;48.30;;;;;;5113957;28;20434;-10
2022/11/17 00:14:39;;;;;;;3.25;2.83;;;19.50;48.20;;;;;;5114160;28;20057;-10
2022/11/17 00:17:10;;;;;;;3.95;2.90;;;19.50;48.20;;;;;;5113646;28;20051;-10
2022/11/17 00:22:21;;;;;;;3.33;2.72;;;19.50;48.20;;;;;;5113817;28;20047;-10
2022/11/17 00:24:47;;;;;;;2.70;2.50;;;19.50;48.20;;;;;;5113719;28;20066;-10
2022/11/17 00:27:13;;;;;;;3.28;2.78;;;19.50;48.30;;;;;;5113422;28;20070;-10
2022/11/17 00:29:39;;;;;;;3.05;2.40;;;19.50;48.20;;;;;;5113150;28;20059;-10
2022/11/17 00:34:59;;;;;;;3.20;2.88;;;19.50;48.20;;;;;;5113375;28;20055;-10
2022/11/17 00:37:27;;;;;;;3.25;2.53;;;19.50;48.20;;;;;;5113297;28;20394;-10
2022/11/17 00:39:53;;;;;;;2.72;2.45;;;19.50;48.20;;;;;;5113138;28;20051;-10
2022/11/17 00:42:18;;;;;;;3.55;2.97;;;19.50;48.10;;;;;;5111775;28;20054;-10
2022/11/17 00:44:44;;;;;;;3.33;2.60;;;19.50;48.20;;;;;;5113128;28;20068;-10
2022/11/17 00:47:10;;;;;;;2.72;2.47;;;19.50;48.20;;;;;;5113019;28;20116;-10
2022/11/17 00:49:36;;;;;;;2.58;2.38;;;19.50;48.70;;;;;;5112950;28;20066;-10
2022/11/17 00:52:01;;;;;;;3.25;2.60;;;19.50;48.10;;;;;;5113026;28;20487;-10
2022/11/17 00:54:27;;;;;;;3.25;2.65;;;19.50;48.10;;;;;;5112912;28;20618;-10
2022/11/17 00:56:53;;;;;;;2.97;2.63;;;19.50;48.60;;;;;;5113003;28;20051;-10
2022/11/17 00:59:19;;;;;;;3.63;2.70;;;19.50;48.00;;;;;;5112944;28;20108;-11
2022/11/17 01:01:45;;;;;;;3.22;2.72;;;19.50;48.10;;;;;;5112853;28;20093;-10
2022/11/17 01:04:13;;;;;;;3.10;2.60;;;19.50;48.10;;;;;;5112745;28;20052;-10
2022/11/17 01:06:41;;;;;;;3.35;2.65;;;19.50;48.00;;;;;;5112482;28;20080;-10
2022/11/17 01:09:27;;;;;;;2.58;2.20;;;19.50;48.00;;;;;;5112477;28;20096;-10
2022/11/17 01:11:52;;;;;;;2.63;2.33;;;19.50;48.00;;;;;;5112791;28;20055;-10
2022/11/17 01:14:21;;;;;;;3.03;2.30;;;19.50;48.00;;;;;;5112521;28;20415;-10
2022/11/17 01:16:47;;;;;;;2.40;2.20;;;19.50;48.00;;;;;;5112431;28;20090;-10
2022/11/17 01:19:14;;;;;;;3.00;2.25;;;19.50;48.00;;;;;;5113043;28;20051;-10
2022/11/17 01:21:40;;;;;;;3.47;2.33;;;19.50;48.00;;;;;;5092951;28;20052;-10
2022/11/17 01:24:06;;;;;;;2.53;2.20;;;19.50;48.00;;;;;;5112795;28;20134;-10
2022/11/17 01:26:34;;;;;;;3.15;2.67;;;19.50;48.00;;;;;;5112176;28;20048;-10
2022/11/17 01:29:02;;;;;;;2.60;2.35;;;19.50;48.00;;;;;;5112455;28;20062;-10
2022/11/17 01:31:30;;;;;;;3.20;2.40;;;19.50;48.00;;;;;;5112574;28;20496;-10
2022/11/17 01:33:56;;;;;;;2.97;2.50;;;19.50;48.00;;;;;;5112468;28;20408;-10
2022/11/17 01:36:25;;;;;;;4.82;2.70;;;19.50;47.90;;;;;;5094159;28;20048;-10
2022/11/17 01:38:51;;;;;;;2.95;2.38;;;19.50;48.00;;;;;;5112424;28;20399;-10
2022/11/17 01:41:22;;;;;;;2.72;2.30;;;19.50;48.00;;;;;;5112601;28;20047;-10
2022/11/17 01:43:54;;;;;;;2.58;2.38;;;19.50;48.00;;;;;;5112686;28;20094;-10
2022/11/17 01:46:32;;;;;;;2.72;2.38;;;19.50;47.90;;;;;;5112374;28;20479;-10
2022/11/17 01:49:03;;;;;;;2.80;2.50;;;19.50;47.90;;;;;;5112658;28;20059;-10
2022/11/17 01:51:32;;;;;;;2.72;2.30;;;19.50;47.90;;;;;;5115823;28;20051;-10
2022/11/17 01:53:58;;;;;;;3.17;2.38;;;19.50;47.90;;;;;;5115758;28;20081;-10
2022/11/17 01:56:29;;;;;;;2.90;2.50;;;19.50;47.90;;;;;;5115504;28;20047;-10
2022/11/17 01:59:05;;;;;;;2.80;2.22;;;19.50;47.90;;;;;;5115975;28;20514;-10
2022/11/17 02:01:32;;;;;;;3.13;2.47;;;19.50;47.80;;;;;;5115989;28;20062;-9
2022/11/17 02:03:58;;;;;;;2.95;2.40;;;19.50;47.90;;;;;;5115894;28;20053;-10
2022/11/17 02:06:34;;;;;;;2.90;2.50;;;19.50;47.80;;;;;;5115498;28;20143;-10
2022/11/17 02:09:02;;;;;;;2.70;2.38;;;19.50;47.90;;;;;;5115829;28;20058;-10
2022/11/17 02:11:34;;;;;;;2.65;2.20;;;19.50;47.80;;;;;;5115931;28;20140;-10
2022/11/17 02:14:03;;;;;;;2.60;2.40;;;19.50;47.80;;;;;;5115521;28;20404;-10
2022/11/17 02:16:29;;;;;;;2.55;2.22;;;19.50;48.40;;;;;;5115023;28;20047;-10
2022/11/17 02:18:55;;;;;;;3.08;2.60;;;19.50;47.80;;;;;;5115596;28;20052;-10
2022/11/17 02:21:39;;;;;;;3.08;2.40;;;19.50;47.80;;;;;;5115044;28;20043;-10
2022/11/17 02:24:42;;;;;;;2.30;2.10;;;19.50;47.80;;;;;;5115002;28;20472;-10
2022/11/17 02:27:44;;;;;;;2.30;2.10;;;19.50;47.80;;;;;;5115316;28;20048;-10
2022/11/17 02:30:17;;;;;;;3.13;2.40;;;19.50;47.80;;;;;;5110624;28;20047;-10
2022/11/17 02:33:02;;;;;;;2.63;2.38;;;19.50;47.80;;;;;;5115760;28;20472;-10
2022/11/17 02:35:33;;;;;;;2.88;2.53;;;19.50;47.80;;;;;;5115140;28;20522;-10
2022/11/17 02:38:12;;;;;;;;;;;19.50;47.70;;;;;;5115697;28;20054;-10
2022/11/17 02:40:48;;;;;;;2.80;2.28;;;19.50;47.70;;;;;;5114873;28;19922;-10
2022/11/17 02:46:16;;;;;;;2.30;2.10;;;19.50;47.60;;;;;;5113635;28;20044;-10
2022/11/17 02:48:52;;;;;;;3.80;2.72;;;19.60;47.60;;;;;;5114629;28;20051;-10
2022/11/17 02:51:23;;;;;;;3.10;2.30;;;19.60;47.50;;;;;;5114899;28;20048;-10
2022/11/17 02:53:53;;;;;;;2.15;1.95;;;19.60;47.50;;;;;;5114979;28;20502;-10
2022/11/17 02:56:19;;;;;;;2.60;2.25;;;19.60;47.40;;;;;;5115030;28;20043;-10
2022/11/17 02:58:47;;;;;;;2.80;2.38;;;19.60;47.40;;;;;;5114699;28;20407;-10
2022/11/17 03:01:19;;;;;;;2.72;2.33;;;19.60;47.30;;;;;;5113619;28;20531;-10
2022/11/17 03:04:10;;;;;;;2.42;2.22;;;19.60;47.30;;;;;;5114796;28;20104;-10
2022/11/17 03:07:05;;;;;;;2.53;2.20;;;19.70;47.30;;;;;;5114320;28;20082;-10
2022/11/17 03:09:38;;;;;;;2.58;2.38;;;19.70;47.20;;;;;;5114511;28;20110;-10
2022/11/17 03:12:36;;;;;;;3.88;2.30;;;19.70;47.10;;;;;;5114512;28;20055;-10
2022/11/17 03:15:21;;;;;;;2.33;2.13;;;19.80;47.20;;;;;;5114416;28;20043;-10
2022/11/17 03:18:02;;;;;;;2.40;2.20;;;19.80;47.10;;;;;;5114556;28;20035;-10
2022/11/17 03:21:08;;;;;;;2.50;2.10;;;19.80;47.00;;;;;;5114346;28;20044;-10
2022/11/17 03:23:47;;;;;;;2.47;2.05;;;19.80;47.00;;;;;;5097053;28;20103;-10
2022/11/17 03:26:19;;;;;;;2.47;1.98;;;19.80;46.90;;;;;;5114556;28;20051;-10
2022/11/17 03:28:46;;;;;;;2.60;2.20;;;19.80;46.80;;;;;;5114634;28;20108;-9
2022/11/17 03:31:15;;;;;;;2.95;2.30;;;19.90;46.80;;;;;;5114294;28;20091;-10
2022/11/17 03:33:44;;;;;;;2.53;2.20;;;19.90;46.80;;;;;;5114101;28;20094;-10
2022/11/17 03:36:19;;;;;;;2.83;2.30;;;19.90;46.80;;;;;;5114155;28;20067;-10
2022/11/17 03:39:07;;;;;;;2.40;2.20;;;19.90;46.80;;;;;;5114042;28;20547;-10
2022/11/17 03:41:38;;;;;;;2.78;2.47;;;19.90;46.80;;;;;;5113883;28;20150;-10
2022/11/17 03:44:05;;;;;;;2.60;2.22;;;19.90;46.70;;;;;;5114365;28;20051;-9
2022/11/17 03:46:33;;;;;;;2.10;1.90;;;19.90;46.70;;;;;;5113746;28;20514;-10
2022/11/17 03:49:16;;;;;;;2.45;2.05;;;20.00;46.70;;;;;;5113966;28;20052;-10
2022/11/17 03:51:42;;;;;;;2.05;1.83;;;20.00;46.70;;;;;;5113574;28;20063;-10
2022/11/17 03:54:09;;;;;;;2.33;2.00;;;20.00;46.60;;;;;;5113877;28;20054;-9
2022/11/17 03:56:43;;;;;;;2.22;1.90;;;20.00;46.60;;;;;;5113424;28;20368;-10
2022/11/17 03:59:26;;;;;;;2.35;2.05;;;20.00;46.60;;;;;;5113443;28;20078;-10
2022/11/17 04:01:52;;;;;;;2.50;2.20;;;20.00;46.60;;;;;;5114384;28;20047;-10
2022/11/17 04:04:20;;;;;;;2.45;2.08;;;20.00;46.50;;;;;;5113722;28;20070;-10
2022/11/17 04:06:47;;;;;;;2.40;2.20;;;20.00;46.50;;;;;;5113408;28;20047;-10
2022/11/17 04:09:12;;;;;;;4.05;2.22;;;20.00;46.50;;;;;;5113647;28;20051;-10
2022/11/17 04:17:07;;;;;;;2.50;2.28;;;20.00;46.50;;;;;;5113531;28;20143;-10
2022/11/17 04:19:34;;;;;;;1.98;1.83;;;20.00;46.50;;;;;;5113434;28;20047;-10
2022/11/17 04:22:01;;;;;;;2.28;2.05;;;20.00;46.50;;;;;;5113773;28;20555;-10
2022/11/17 04:24:28;;;;;;;2.05;1.83;;;20.00;46.50;;;;;;5113808;28;20067;-10
2022/11/17 04:29:40;;;;;;;2.10;1.90;;;20.00;46.50;;;;;;5113390;28;20051;-10
2022/11/17 04:32:06;;;;;;;1.95;1.75;;;20.00;46.50;;;;;;5113371;28;20059;-10
2022/11/17 04:34:33;;;;;;;2.40;2.20;;;20.00;46.50;;;;;;5113354;28;20054;-10
2022/11/17 04:37:01;;;;;;;2.38;2.03;;;20.00;46.60;;;;;;5113027;28;20048;-10
2022/11/17 04:39:27;;;;;;;2.80;2.22;;;20.00;46.50;;;;;;5113050;28;20048;-10
2022/11/17 04:41:53;;;;;;;2.22;1.95;;;20.00;46.50;;;;;;5113516;28;20055;-10
2022/11/17 04:44:31;;;;;;;2.00;1.80;;;20.00;46.50;;;;;;5113495;28;20048;-10
2022/11/17 04:47:01;;;;;;;2.53;1.70;;;20.00;46.50;;;;;;5112942;28;20085;-10
2022/11/17 04:49:31;;;;;;;1.90;1.73;;;20.00;46.50;;;;;;5113046;28;20055;-10
2022/11/17 04:51:57;;;;;;;2.20;2.00;;;20.00;46.50;;;;;;5113021;28;20097;-10
2022/11/17 04:54:24;;;;;;;2.33;2.00;;;20.00;46.50;;;;;;5113352;28;20058;-10
2022/11/17 04:56:50;;;;;;;1.95;1.75;;;20.00;46.40;;;;;;5112834;28;20556;-10
2022/11/17 04:59:16;;;;;;;2.63;2.00;;;20.00;46.40;;;;;;5112608;28;20051;-10
2022/11/17 05:01:42;;;;;;;2.40;2.00;;;20.00;46.30;;;;;;5113221;28;20078;-10
2022/11/17 05:04:13;;;;;;;2.30;1.73;;;20.00;46.40;;;;;;5112721;28;20100;-10
2022/11/17 05:06:43;;;;;;;2.20;2.00;;;20.00;46.30;;;;;;5112691;28;20059;-10
2022/11/17 05:09:12;;;;;;;2.38;1.95;;;20.00;46.40;;;;;;5113379;28;20044;-10
2022/11/17 05:14:24;;;;;;;2.92;2.42;;;20.00;46.40;;;;;;5113405;28;20052;-10
2022/11/17 05:17:08;;;;;;;1.80;1.65;;;19.90;46.40;;;;;;5112521;28;20048;-10
2022/11/17 05:19:39;;;;;;;1.85;1.67;;;19.90;46.40;;;;;;5113065;28;20063;-10
2022/11/17 05:23:52;;;;;;;2.20;2.00;;;19.90;46.40;;;;;;5113026;28;20129;-10
2022/11/17 05:24:53;;;;;;;2.00;1.77;;;19.90;46.40;;;;;;5114048;28;20047;-10
2022/11/17 05:27:20;;;;;;;2.17;1.90;;;19.90;46.40;;;;;;5115870;28;20160;-10
2022/11/17 05:29:45;;;;;;;1.75;1.65;;;19.90;46.50;;;;;;5116214;28;20185;-10
2022/11/17 05:32:11;;;;;;;2.42;2.10;;;19.90;46.50;;;;;;5116317;28;20142;-10
2022/11/17 05:34:37;;;;;;;2.25;1.85;;;19.90;46.50;;;;;;5116174;28;20062;-10
2022/11/17 05:37:05;;;;;;;2.42;1.90;;;19.90;46.50;;;;;;5116417;28;20056;-10
2022/11/17 05:39:31;;;;;;;2.05;1.70;;;19.90;46.50;;;;;;5115952;28;20078;-10
2022/11/17 05:41:59;;;;;;;2.20;2.00;;;19.90;46.50;;;;;;5116253;28;20052;-10
2022/11/17 05:44:25;;;;;;;2.10;1.90;;;19.90;46.50;;;;;;5116183;28;20134;-10
2022/11/17 05:46:51;;;;;;;2.00;1.80;;;19.90;46.50;;;;;;5115844;28;20050;-10
2022/11/17 05:49:16;;;;;;;1.85;1.75;;;19.90;46.50;;;;;;5116150;28;20048;-10
2022/11/17 05:51:42;;;;;;;1.75;1.65;;;19.90;46.50;;;;;;5115548;28;20077;-10
2022/11/17 05:54:07;;;;;;;3.28;2.10;;;19.90;46.50;;;;;;5115787;28;20047;-10
2022/11/17 05:56:54;;;;;;;2.33;1.98;;;19.90;46.40;;;;;;5115429;28;20163;-10
2022/11/17 05:59:31;;;;;;;3.08;2.45;;;19.90;46.40;;;;;;5115649;28;20048;-10
2022/11/17 06:02:12;;;;;;;2.40;2.13;;;19.90;46.40;;;;;;5115668;28;20495;-10
2022/11/17 06:04:38;;;;;;;2.70;1.80;;;19.90;46.50;;;;;;5115409;28;20056;-10
2022/11/17 06:07:05;;;;;;;2.15;1.80;;;19.90;46.50;;;;;;5115727;28;20082;-10
2022/11/17 06:09:32;;;;;;;2.13;1.92;;;19.90;46.50;;;;;;5115533;28;20044;-10
2022/11/17 06:11:59;;;;;;;2.17;1.83;;;19.90;46.40;;;;;;5116183;28;20051;-10
2022/11/17 06:14:27;;;;;;;2.20;2.00;;;19.90;46.30;;;;;;5115440;28;20047;-10
2022/11/17 06:16:58;;;;;;;2.25;1.92;;;19.90;46.30;;;;;;5115248;28;20075;-10
2022/11/17 06:19:31;;;;;;;2.17;1.98;;;19.90;46.40;;;;;;5115374;28;20124;-10
2022/11/17 06:21:59;;;;;;;1.90;1.80;;;19.90;46.30;;;;;;5115392;28;20510;-10
2022/11/17 06:24:26;;;;;;;2.10;1.90;;;19.90;46.40;;;;;;5115269;28;20048;-10
2022/11/17 06:26:52;;;;;;;2.45;1.92;;;19.90;46.30;;;;;;5115247;28;20054;-10
2022/11/17 06:29:18;;;;;;;2.17;1.95;;;19.90;46.30;;;;;;5115348;28;20051;-10
2022/11/17 06:31:45;;;;;;;2.08;1.88;;;19.90;46.30;;;;;;5115041;28;20399;-10
2022/11/17 06:34:11;;;;;;;2.30;2.10;;;19.90;46.30;;;;;;5114934;28;20084;-10
2022/11/17 06:36:37;;;;;;;1.90;1.80;;;19.90;46.30;;;;;;5115005;28;20048;-10
2022/11/17 06:39:02;;;;;;;2.30;2.00;;;19.90;46.30;;;;;;5111765;28;20060;-10
2022/11/17 06:41:29;;;;;;;2.03;1.83;;;19.90;46.30;;;;;;5079638;28;20141;-10
2022/11/17 06:43:55;;;;;;;2.45;1.98;;;19.90;46.30;;;;;;5114945;28;20056;-10
2022/11/17 06:46:21;;;;;;;2.20;2.00;;;19.90;46.30;;;;;;5114732;28;20043;-10
2022/11/17 06:48:47;;;;;;;1.88;1.70;;;19.90;46.30;;;;;;5114942;28;20043;-10
2022/11/17 06:51:12;;;;;;;2.47;2.08;;;19.90;46.30;;;;;;5115077;28;20055;-10
2022/11/17 06:53:38;;;;;;;3.25;1.83;;;19.90;46.30;;;;;;5114799;28;20566;-10
2022/11/17 06:56:07;;;;;;;1.90;1.70;;;19.90;46.30;;;;;;5114976;28;20131;-10
2022/11/17 06:58:34;;;;;;;1.75;1.65;;;19.90;46.20;;;;;;5115047;28;20108;-10
2022/11/17 07:01:08;;;;;;;1.92;1.73;;;19.90;46.20;;;;;;5115093;28;20499;-10
2022/11/17 07:03:35;;;;;;;2.53;2.08;;;19.90;46.30;;;;;;5114918;28;20090;-10
2022/11/17 07:06:02;;;;;;;2.00;1.80;;;19.90;46.30;;;;;;5114465;28;20051;-10
2022/11/17 07:08:29;;;;;;;1.95;1.80;;;19.90;46.30;;;;;;5114486;28;20048;-10
2022/11/17 07:10:54;;;;;;;1.80;1.70;;;19.90;46.30;;;;;;5114546;28;20542;-10
2022/11/17 07:13:21;;;;;;;2.10;1.90;;;19.90;46.30;;;;;;5096248;28;20135;-10
2022/11/17 07:15:48;;;;;;;2.35;1.95;;;19.90;46.30;;;;;;5114522;28;20100;-10
2022/11/17 07:18:19;;;;;;;1.83;1.73;;;19.90;46.30;;;;;;5114352;28;20047;-11
2022/11/17 07:20:46;;;;;;;1.73;1.63;;;19.90;46.80;;;;;;5114652;28;20077;-10
2022/11/17 07:23:12;;;;;;;2.10;1.90;;;19.90;46.20;;;;;;5114461;28;20496;-10
2022/11/17 07:25:38;;;;;;;1.90;1.75;;;19.90;46.30;;;;;;5114219;28;20056;-10
2022/11/17 07:28:04;;;;;;;1.90;1.70;;;19.90;46.30;;;;;;5112892;28;20070;-10
2022/11/17 07:30:30;;;;;;;2.00;1.80;;;19.90;46.30;;;;;;5114152;28;20062;-10
2022/11/17 07:32:59;;;;;;;2.42;1.92;;;19.90;46.30;;;;;;5114170;28;20048;-10
2022/11/17 07:35:24;;;;;;;3.45;1.95;;;19.90;46.30;;;;;;5113962;28;20522;-10
2022/11/17 07:37:50;;;;;;;2.00;1.80;;;19.90;46.20;;;;;;5113984;28;20085;-10
2022/11/17 07:40:16;;;;;;;2.10;1.67;;;19.90;46.20;;;;;;5113814;28;20059;-10
2022/11/17 07:42:46;;;;;;;1.95;1.75;;;19.90;46.20;;;;;;5114291;28;20169;-10
2022/11/17 07:45:12;;;;;;;2.10;1.90;;;19.90;46.20;;;;;;5114324;28;20047;-10
2022/11/17 07:47:37;;;;;;;2.00;1.88;;;19.90;46.20;;;;;;5113153;28;20298;-10
2022/11/17 07:50:03;;;;;;;2.30;2.10;;;19.90;46.20;;;;;;5114011;28;20407;-10
2022/11/17 07:52:30;;;;;;;1.77;1.67;;;19.90;46.20;;;;;;5114418;28;20130;-10
2022/11/17 07:54:55;;;;;;;1.73;1.63;;;19.90;46.20;;;;;;5096071;28;20051;-10
2022/11/17 07:57:21;;;;;;;1.92;1.73;;;20.00;46.20;;;;;;5113584;28;20074;-10
2022/11/17 07:59:47;;;;;;;1.80;1.70;;;20.00;46.20;;;;;;5113755;28;20047;-10
2022/11/17 08:02:13;;;;;;;2.05;1.88;;;20.00;46.20;;;;;;5095310;28;20104;-10
2022/11/17 08:04:38;;;;;;;2.17;1.95;;;20.00;46.20;;;;;;5113541;28;20054;-10
2022/11/17 08:07:04;;;;;;;2.10;1.90;;;20.00;46.20;;;;;;5112568;28;20051;-10
2022/11/17 08:09:30;;;;;;;1.90;1.70;;;20.00;46.20;;;;;;5113541;28;20117;-10
2022/11/17 08:11:58;;;;;;;2.28;1.85;;;20.00;46.20;;;;;;5114044;28;20048;-10
2022/11/17 08:14:23;;;;;;;1.60;1.50;;;20.00;46.20;;;;;;5113391;28;20084;-10
2022/11/17 08:16:49;;;;;;;2.20;2.00;;;20.00;46.20;;;;;;5113142;28;20484;-10
2022/11/17 08:19:15;;;;;;;1.92;1.77;;;20.00;46.20;;;;;;5113071;28;20055;-10
2022/11/17 08:21:41;;;;;;;1.70;1.60;;;20.00;46.10;;;;;;5113254;28;20062;-10
2022/11/17 08:24:07;;;;;;;2.10;1.90;;;20.00;46.20;;;;;;5113236;28;20407;-10
2022/11/17 08:26:32;;;;;;;1.70;1.60;;;20.00;46.20;;;;;;5113238;28;20067;-10
2022/11/17 08:29:00;;;;;;;2.42;1.90;;;20.00;46.20;;;;;;5113151;28;20051;-10
2022/11/17 08:31:26;;;;;;;2.08;1.80;;;20.00;46.20;;;;;;5112648;28;20416;-11
2022/11/17 08:33:52;;;;;;;1.98;1.77;;;20.00;46.20;;;;;;5112945;28;20051;-10
2022/11/17 08:36:17;;;;;;;2.00;1.80;;;20.00;46.10;;;;;;5113532;28;20051;-10
2022/11/17 08:38:43;;;;;;;2.20;2.00;;;20.00;46.20;;;;;;5112582;28;20108;-10
2022/11/17 08:41:09;;;;;;;1.85;1.65;;;20.00;46.20;;;;;;5112797;28;20043;-10
2022/11/17 08:43:34;;;;;;;1.73;1.63;;;20.00;46.20;;;;;;5112821;28;20188;-10
2022/11/17 08:46:01;;;;;;;1.60;1.50;;;20.00;46.10;;;;;;5113204;28;20089;-10
2022/11/17 08:48:28;;;;;;;1.90;1.70;;;20.00;46.10;;;;;;5112999;28;20048;-10
2022/11/17 08:50:54;;;;;;;1.73;1.63;;;20.00;46.10;;;;;;5112853;28;20048;-10
2022/11/17 08:53:22;;;;;;;2.20;2.00;;;20.00;46.10;;;;;;5112862;28;21295;-10
2022/11/17 08:55:49;;;;;;;2.10;1.90;;;20.00;46.10;;;;;;5112721;28;20046;-10
2022/11/17 08:58:15;;;;;;;2.15;1.95;;;20.00;46.10;;;;;;5112982;28;20048;-10
2022/11/17 09:00:41;;;;;;;4.75;1.55;;;20.00;46.10;;;;;;5115057;28;20040;-10
2022/11/17 09:03:09;;;;;;;2.00;1.80;;;20.00;46.10;;;;;;5116398;28;20174;-12
2022/11/17 09:05:39;;;;;;;3.55;1.60;;;20.00;46.10;;;;;;5097567;28;20060;-12
2022/11/17 09:08:06;;;;;;;1.70;1.60;;;20.00;46.10;;;;;;5116609;28;20075;-11
2022/11/17 09:10:32;;;;;;;2.72;2.00;;;20.00;46.10;;;;;;5115751;28;20082;-11
2022/11/17 09:12:59;;;;;;;1.80;1.70;;;20.00;46.10;;;;;;5115969;28;20074;-11
2022/11/17 09:15:24;;;;;;;2.10;1.90;;;20.00;46.10;;;;;;5115952;28;20071;-11
2022/11/17 09:17:51;;;;;;;1.90;1.80;;;20.00;46.00;;;;;;5115863;28;20514;-11
2022/11/17 09:20:18;;;;;;;1.90;1.73;;;20.00;46.00;;;;;;5115683;28;20079;-12
2022/11/17 09:22:44;;;;;;;3.03;1.60;;;20.00;46.00;;;;;;5115695;28;20056;-12
2022/11/17 09:25:11;;;;;;;1.83;1.67;;;20.10;46.00;;;;;;5115647;28;20488;-11
2022/11/17 09:27:37;;;;;;;3.15;2.00;;;20.10;45.90;;;;;;5115912;28;20055;-11
2022/11/17 09:30:03;;;;;;;2.08;1.77;;;20.10;46.00;;;;;;5097100;28;20052;-11
2022/11/17 09:32:29;;;;;;;1.70;1.60;;;20.00;45.90;;;;;;5115699;28;20059;-11
2022/11/17 09:34:55;;;;;;;1.95;1.63;;;20.00;45.90;;;;;;5116040;28;20051;-11
2022/11/17 09:37:21;;;;;;;2.22;1.90;;;20.10;45.90;;;;;;5115700;28;20055;-11
2022/11/17 09:39:47;;;;;;;2.00;1.80;;;20.10;45.90;;;;;;5115687;28;20184;-11
2022/11/17 09:42:17;;;;;;;2.00;1.80;;;20.10;46.00;;;;;;5097431;28;20483;-11
2022/11/17 09:44:56;;;;;;;2.42;2.15;;;20.10;45.90;;;;;;5097881;28;20131;-11
2022/11/17 09:47:31;;;;;;;2.20;1.98;;;20.10;45.90;;;;;;5115698;28;20051;-11
2022/11/17 09:50:41;;;;;;;2.00;1.80;;;20.10;45.90;;;;;;5115508;28;20051;-11
2022/11/17 09:53:27;;;;;;;2.53;2.10;;;20.10;45.90;;;;;;5012925;28;20057;-11
2022/11/17 09:56:00;;;;;;;1.98;1.75;;;20.10;45.90;;;;;;5012871;28;20049;-11
2022/11/17 09:58:43;;;;;;;1.65;1.55;;;20.10;45.80;;;;;;5079548;28;20104;-11
2022/11/17 10:01:12;;;;;;;1.65;1.55;;;20.10;45.80;;;;;;5115214;28;20143;-11
2022/11/17 10:03:39;;;;;;;1.65;1.55;;;20.10;45.80;;;;;;5116071;28;20059;-11
2022/11/17 10:06:27;;;;;;;2.03;1.83;;;20.10;45.80;;;;;;5115495;28;20044;-11
2022/11/17 10:09:20;;;;;;;2.58;2.17;;;20.10;45.80;;;;;;5115111;28;20071;-11
2022/11/17 10:11:46;;;;;;;1.85;1.58;;;20.10;45.80;;;;;;5114566;28;20047;-11
2022/11/17 10:14:18;;;;;;;2.05;1.85;;;20.10;45.80;;;;;;5114864;28;20101;-11
2022/11/17 10:16:53;;;;;;;3.20;1.80;;;20.10;45.70;;;;;;5114699;28;20047;-11
2022/11/17 10:19:22;;;;;;;2.05;1.77;;;20.20;45.80;;;;;;5114810;28;20411;-11
2022/11/17 10:21:52;;;;;;;1.80;1.70;;;20.20;45.80;;;;;;5114999;28;20380;-11
2022/11/17 10:24:33;;;;;;;1.90;1.70;;;20.10;45.70;;;;;;5114894;28;20047;-10
2022/11/17 10:27:01;;;;;;;1.90;1.80;;;20.20;45.70;;;;;;5114985;28;20102;-11
2022/11/17 10:29:30;;;;;;;3.28;1.80;;;20.10;45.70;;;;;;5114604;28;20048;-11
2022/11/17 10:31:59;;;;;;;1.88;1.75;;;20.20;45.70;;;;;;5115174;28;20047;-11
2022/11/17 10:34:37;;;;;;;1.75;1.65;;;20.20;45.70;;;;;;5115057;28;20043;-11
2022/11/17 10:37:20;;;;;;;2.90;1.88;;;20.20;45.70;;;;;;5114789;28;20055;-11
2022/11/17 10:39:46;;;;;;;2.25;1.80;;;20.20;46.30;;;;;;5115000;28;20050;-11
2022/11/17 10:42:29;;;;;;;2.25;2.05;;;20.20;45.70;;;;;;5114850;28;20051;-11
2022/11/17 10:44:58;;;;;;;2.05;1.80;;;20.20;45.70;;;;;;5114880;28;20051;-11
2022/11/17 10:47:38;;;;;;;2.20;2.00;;;20.20;45.70;;;;;;5114837;28;20122;-11
2022/11/17 10:50:16;;;;;;;1.98;1.65;;;20.20;45.70;;;;;;5096885;28;20430;-11
2022/11/17 10:52:42;;;;;;;2.20;2.00;;;20.20;45.70;;;;;;5115232;28;20155;-11
2022/11/17 10:55:17;;;;;;;1.95;1.73;;;20.20;45.60;;;;;;5114764;28;20079;-11
2022/11/17 10:57:46;;;;;;;2.00;1.80;;;20.20;45.60;;;;;;5114974;28;20467;-11
2022/11/17 11:00:42;;;;;;;2.40;1.85;;;20.20;45.60;;;;;;5114524;28;20066;-11
2022/11/17 11:03:18;;;;;;;1.92;1.60;;;20.20;45.60;;;;;;5114076;28;20063;-11
2022/11/17 11:06:03;;;;;;;2.13;1.85;;;20.20;45.60;;;;;;5112375;28;20067;-11
2022/11/17 11:08:52;;;;;;;1.92;1.73;;;20.20;45.60;;;;;;5114408;28;20055;-11
2022/11/17 11:11:45;;;;;;;1.83;1.70;;;20.20;45.60;;;;;;5114241;28;20126;-10
2022/11/17 11:14:28;;;;;;;1.77;1.67;;;20.20;45.60;;;;;;5113825;28;20056;-11
2022/11/17 11:16:54;;;;;;;2.30;2.08;;;20.20;45.60;;;;;;5112680;28;20100;-11
2022/11/17 11:19:20;;;;;;;2.28;2.08;;;20.20;45.50;;;;;;5113247;28;20051;-11
2022/11/17 11:22:14;;;;;;;2.63;1.90;;;20.20;45.60;;;;;;5112670;28;20055;-11
2022/11/17 11:24:46;;;;;;;3.78;1.60;;;20.20;45.60;;;;;;5112959;28;20111;-11
2022/11/17 11:27:42;;;;;;;8.85;2.35;;;20.20;45.70;;;;;;5113150;28;20039;-11
2022/11/17 11:30:14;;;;;;;2.85;2.10;;;20.20;45.60;;;;;;5113429;28;20058;-11
2022/11/17 11:32:40;;;;;;;1.98;1.80;;;20.20;45.70;;;;;;5113790;28;20047;-11
2022/11/17 11:35:40;;;;;;;1.90;1.80;;;20.20;45.80;;;;;;5112358;28;20047;-12
2022/11/17 11:38:24;;;;;;;2.38;2.00;;;20.10;45.70;;;;;;5113064;28;20052;-11
2022/11/17 11:41:15;;;;;;;2.03;1.85;;;20.10;45.70;;;;;;5113139;28;20047;-11
2022/11/17 11:44:13;;;;;;;2.08;1.88;;;20.10;45.80;;;;;;5110461;28;20403;-12
2022/11/17 11:47:14;;;;;;;2.17;1.98;;;20.10;45.80;;;;;;5076925;28;20047;-11
2022/11/17 11:49:47;;;;;;;1.93;1.83;;;20.00;45.90;;;;;;5078445;28;20484;-10
2022/11/17 11:52:21;;;;;;;1.60;1.48;;;20.00;45.90;;;;;;5112854;28;20101;-10
2022/11/17 11:54:55;;;;;;;1.77;1.65;;;20.00;46.00;;;;;;5112720;28;20051;-10
2022/11/17 11:57:27;;;;;;;1.65;1.55;;;20.00;46.00;;;;;;5113363;28;20047;-10
2022/11/17 12:00:00;;;;;;;2.08;1.75;;;20.00;46.10;;;;;;5112954;28;20051;-10
2022/11/17 12:02:46;;;;;;;2.17;1.98;;;20.00;46.20;;;;;;5112638;28;20075;-10
2022/11/17 12:05:33;;;;;;;2.10;1.90;;;20.00;46.20;;;;;;5112782;28;20500;-10
2022/11/17 12:08:18;;;;;;;2.55;2.00;;;20.00;46.20;;;;;;5112872;28;20181;-10
2022/11/17 12:10:59;;;;;;;2.13;1.90;;;20.00;46.20;;;;;;5112958;28;20514;-10
2022/11/17 12:13:25;;;;;;;1.90;1.70;;;20.00;46.20;;;;;;5113197;28;20055;-10
2022/11/17 12:16:18;;;;;;;1.85;1.73;;;20.00;46.10;;;;;;5112484;28;20131;-10
2022/11/17 12:18:44;;;;;;;2.15;1.77;;;20.00;46.10;;;;;;5112449;28;20044;-10
2022/11/17 12:21:11;;;;;;;2.13;1.92;;;20.00;46.00;;;;;;5112530;28;20123;-10
2022/11/17 12:24:02;;;;;;;2.75;2.00;;;20.00;45.90;;;;;;5112588;28;20052;-10
2022/11/17 12:26:30;;;;;;;2.22;2.03;;;20.00;45.90;;;;;;5112969;28;20050;-10
2022/11/17 12:29:18;;;;;;;3.08;2.28;;;20.00;45.70;;;;;;5112399;28;20158;-10
2022/11/17 12:31:49;;;;;;;2.88;2.22;;;20.10;45.70;;;;;;5112178;28;20055;-10
2022/11/17 12:34:30;;;;;;;3.45;2.33;;;20.10;45.60;;;;;;5112103;28;20142;-10
2022/11/17 12:37:05;;;;;;;2.63;2.15;;;20.10;45.40;;;;;;5112548;28;20097;-10
2022/11/17 12:40:00;;;;;;;2.63;2.20;;;20.10;45.40;;;;;;5112987;28;20139;-11
2022/11/17 12:42:27;;;;;;;2.60;2.08;;;20.10;45.40;;;;;;5111882;28;20134;-11
2022/11/17 12:45:01;;;;;;;3.28;2.55;;;20.10;45.40;;;;;;5111778;28;20563;-11
2022/11/17 12:47:37;;;;;;;5.63;2.50;;;20.20;45.50;;;;;;5111788;28;20050;-10
2022/11/17 12:50:38;;;;;;;3.83;2.30;;;20.20;45.50;;;;;;5113126;28;20097;-11
2022/11/17 12:53:30;;;;;;;1.97;1.70;;;20.20;45.40;;;;;;5112685;28;20491;-11
2022/11/17 12:56:34;;;;;;;6.75;2.55;;;20.20;45.40;;;;;;5092635;28;20052;-12
2022/11/17 12:59:33;;;;;;;3.50;2.13;;;20.20;45.40;;;;;;5111103;28;20100;-13
2022/11/17 13:02:30;;;;;;;5.68;2.80;;;20.20;45.50;;;;;;5111840;28;20560;-12
2022/11/17 13:05:16;;;;;;;2.38;2.00;;;20.20;45.50;;;;;;5111875;28;20159;-12
2022/11/17 13:07:42;;;;;;;4.70;2.30;;;20.20;45.50;;;;;;5112393;28;20063;-11
2022/11/17 13:10:23;;;;;;;2.80;2.50;;;20.20;45.50;;;;;;5113194;28;20051;-11
2022/11/17 13:12:49;;;;;;;3.90;2.30;;;20.20;45.60;;;;;;5112740;28;20059;-11
2022/11/17 13:15:22;;;;;;;3.83;2.42;;;20.20;45.60;;;;;;5112580;28;20052;-11
2022/11/17 13:17:49;;;;;;;2.95;2.03;;;20.20;45.60;;;;;;5113033;28;20051;-11
2022/11/17 13:20:26;;;;;;;3.22;2.65;;;20.20;45.70;;;;;;5112666;28;20147;-11
2022/11/17 13:23:06;;;;;;;2.95;2.30;;;20.10;45.70;;;;;;5112433;28;20068;-11
2022/11/17 13:25:32;;;;;;;2.70;2.38;;;20.10;45.80;;;;;;5112349;28;20048;-11
2022/11/17 13:27:58;;;;;;;4.15;2.55;;;20.10;45.80;;;;;;5112525;28;20055;-11
2022/11/17 13:30:29;;;;;;;3.85;2.47;;;20.00;45.80;;;;;;5112512;28;20039;-11
2022/11/17 13:32:56;;;;;;;1.83;1.73;;;20.00;45.80;;;;;;5112823;28;20048;-11
2022/11/17 13:35:40;;;;;;;2.75;2.20;;;20.00;45.90;;;;;;5112130;28;20083;-12